Catacamas, Honduras
Current Conditions -  °F | °C
As of 4:00 PM on Wednesday 28 Jan 2015 (Local Time) from MHCA Reporting Station
Scattered Clouds Scattered Clouds  
Wind Chill: 81°   Ceiling: Unl
Heat Index: 81°   Visibility: 6mi
Dew Point: 52°   Wind: 9mph
Humidity: 37%   Direction: 20°NNE
Pressure: 30"   Gusts: NA
Location:  14.85°N, 85.89°W
Report Text: MHCA 282200Z 02008KT 9999 SCT028 SCT080 27/11 Q1016
Loading
Personal Weather Stations






























Interactive Weather Map New forecast layout! Learn more

10-Day Weather Forecast

Advertisements
Track Severe Weather on mobile